Terminal Aerodrome Forecast
Issued by NWS

Current Version | Previous Version | Graphics & Text | Print | Product List | Glossary On
Versions: 1 2 3 4 5 6 7 8 9 10 11 12 13 14 15 16 17 18 19 20 21 22
000
FTUS41 KPBZ 070030 AAA
TAFMGW
TAF AMD
KMGW 070030Z 0701/0724 VRB03KT P6SM VCTS SCT035CB SCT100
     FM070200 VRB03KT P6SM SCT100
     FM070900 VRB03KT 5SM BR SCT150
     FM071500 22011G18KT P6SM BKN035=

USA.gov is the U.S. government's official web portal to all federal, state and local government web resources and services.